createdAt,value
2023-03-16T00:02:21.173Z,8.20
2023-03-16T00:04:49.521Z,8.20
2023-03-16T00:07:18.042Z,8.20
2023-03-16T00:09:46.752Z,8.20
2023-03-16T00:12:18.823Z,8.20
2023-03-16T00:14:48.792Z,8.20
2023-03-16T00:17:20.205Z,8.20
2023-03-16T00:19:51.221Z,8.20
2023-03-16T00:22:19.530Z,8.20
2023-03-16T00:24:48.019Z,8.20
2023-03-16T00:27:18.393Z,8.20
2023-03-16T00:29:49.205Z,8.20
2023-03-16T00:32:18.912Z,8.20
2023-03-16T00:34:47.809Z,8.20
2023-03-16T00:37:18.261Z,8.10
2023-03-16T00:39:47.581Z,8.10
2023-03-16T00:42:18.653Z,8.10
2023-03-16T00:44:47.576Z,8.10
2023-03-16T00:47:18.997Z,8.10
2023-03-16T00:49:48.069Z,8.10
2023-03-16T00:52:20.145Z,8.10
2023-03-16T00:54:49.441Z,8.10
2023-03-16T00:57:19.844Z,8.10
2023-03-16T00:59:48.828Z,8.00
2023-03-16T01:02:20.023Z,8.10
2023-03-16T01:04:48.421Z,8.00
2023-03-16T01:07:16.822Z,8.00
2023-03-16T01:09:45.568Z,8.00
2023-03-16T01:12:16.729Z,8.00
2023-03-16T01:14:48.238Z,7.90
2023-03-16T01:17:17.979Z,7.90
2023-03-16T01:19:47.284Z,7.90
2023-03-16T01:22:18.447Z,7.90
2023-03-16T01:24:47.122Z,7.90
2023-03-16T01:27:16.171Z,7.90
2023-03-16T01:29:44.776Z,7.90
2023-03-16T01:32:15.420Z,7.90
2023-03-16T01:34:44.236Z,7.90
2023-03-16T01:37:14.196Z,7.90
2023-03-16T01:39:57.284Z,7.90
2023-03-16T01:42:25.609Z,7.80
2023-03-16T01:44:56.935Z,7.80
2023-03-16T01:47:38.161Z,7.80
2023-03-16T01:50:08.905Z,7.80
2023-03-16T01:52:41.174Z,7.80
2023-03-16T01:55:13.678Z,7.80
2023-03-16T01:57:46.239Z,7.80
2023-03-16T02:00:24.514Z,7.80
2023-03-16T02:03:15.101Z,7.80
2023-03-16T02:06:08.962Z,7.80
2023-03-16T02:08:39.922Z,7.80
2023-03-16T02:11:10.083Z,7.80
2023-03-16T02:13:49.024Z,7.70
2023-03-16T02:16:20.121Z,7.70
2023-03-16T02:18:53.399Z,7.80
2023-03-16T02:21:29.940Z,7.80
2023-03-16T02:23:58.539Z,7.80
2023-03-16T02:26:34.156Z,7.70
2023-03-16T02:29:15.255Z,7.80
2023-03-16T02:31:48.281Z,7.80
2023-03-16T02:34:18.352Z,7.80
2023-03-16T02:36:49.657Z,7.80
2023-03-16T02:39:20.918Z,7.80
2023-03-16T02:41:49.313Z,7.80
2023-03-16T02:44:24.335Z,7.80
2023-03-16T02:46:58.380Z,7.70
2023-03-16T02:49:31.852Z,7.80
2023-03-16T02:52:00.191Z,7.70
2023-03-16T02:54:29.133Z,7.70
2023-03-16T02:56:58.137Z,7.80
2023-03-16T02:59:28.213Z,7.80
2023-03-16T03:01:58.431Z,7.70
2023-03-16T03:04:26.775Z,7.70
2023-03-16T03:06:55.331Z,7.70
2023-03-16T03:09:23.812Z,7.70
2023-03-16T03:11:55.114Z,7.70
2023-03-16T03:14:25.385Z,7.70
2023-03-16T03:16:53.812Z,7.70
2023-03-16T03:19:24.228Z,7.70
2023-03-16T03:21:56.816Z,7.70
2023-03-16T03:24:25.404Z,7.70
2023-03-16T03:26:53.741Z,7.70
2023-03-16T03:29:22.401Z,7.70
2023-03-16T03:31:50.753Z,7.70
2023-03-16T03:34:19.104Z,7.80
2023-03-16T03:36:48.848Z,7.70
2023-03-16T03:39:17.333Z,7.80
2023-03-16T03:41:46.716Z,7.80
2023-03-16T03:44:15.139Z,7.70
2023-03-16T03:46:43.732Z,7.70
2023-03-16T03:49:12.953Z,7.70
2023-03-16T03:51:42.156Z,7.70
2023-03-16T03:54:16.334Z,7.70
2023-03-16T03:56:58.424Z,7.80
2023-03-16T03:59:26.758Z,7.70
2023-03-16T04:02:21.576Z,7.70
2023-03-16T04:04:53.771Z,7.70
2023-03-16T04:07:22.245Z,7.70
2023-03-16T04:09:55.068Z,7.70
2023-03-16T04:12:31.471Z,7.70
2023-03-16T04:15:00.171Z,7.70
2023-03-16T04:17:35.298Z,7.70
2023-03-16T04:20:13.234Z,7.70
2023-03-16T04:22:43.604Z,7.70
2023-03-16T04:25:15.893Z,7.70
2023-03-16T04:27:46.894Z,7.70
2023-03-16T04:30:17.567Z,7.70
2023-03-16T04:32:52.250Z,7.70
2023-03-16T04:35:22.236Z,7.70
2023-03-16T04:37:55.259Z,7.70
2023-03-16T04:40:30.778Z,7.70
2023-03-16T04:43:08.217Z,7.70
2023-03-16T04:45:37.296Z,7.70
2023-03-16T04:48:06.452Z,7.70
2023-03-16T04:50:35.568Z,7.70
2023-03-16T04:53:04.608Z,7.70
2023-03-16T04:55:34.958Z,7.70
2023-03-16T04:58:04.077Z,7.70
2023-03-16T05:00:36.549Z,7.70
2023-03-16T05:03:10.315Z,7.70
2023-03-16T05:05:39.313Z,7.70
2023-03-16T05:08:08.181Z,7.70
2023-03-16T05:10:40.756Z,7.70
2023-03-16T05:13:09.426Z,7.70
2023-03-16T05:15:38.544Z,7.70
2023-03-16T05:18:18.507Z,7.70
2023-03-16T05:20:46.883Z,7.70
2023-03-16T05:23:16.739Z,7.70
2023-03-16T05:25:51.185Z,7.70
2023-03-16T05:28:22.306Z,7.70
2023-03-16T05:30:57.455Z,7.70
2023-03-16T05:33:28.831Z,7.70
2023-03-16T05:36:04.049Z,7.70
2023-03-16T05:38:33.537Z,7.70
2023-03-16T05:41:06.019Z,7.60
2023-03-16T05:44:04.515Z,7.70
2023-03-16T05:47:05.021Z,7.60
2023-03-16T05:49:35.964Z,7.60
2023-03-16T05:52:08.489Z,7.60
2023-03-16T05:54:37.603Z,7.60
2023-03-16T05:57:07.771Z,7.60
2023-03-16T05:59:37.359Z,7.60
2023-03-16T06:02:06.962Z,7.60
2023-03-16T06:04:35.280Z,7.60
2023-03-16T06:07:03.797Z,7.60
2023-03-16T06:09:33.106Z,7.60
2023-03-16T06:12:05.036Z,7.60
2023-03-16T06:14:36.057Z,7.60
2023-03-16T06:17:04.607Z,7.60
2023-03-16T06:19:34.209Z,7.60
2023-03-16T06:22:03.911Z,7.60
2023-03-16T06:24:32.669Z,7.60
2023-03-16T06:27:00.949Z,7.60
2023-03-16T06:29:36.853Z,7.60
2023-03-16T06:32:05.743Z,7.60
2023-03-16T06:34:35.066Z,7.60
2023-03-16T06:37:04.607Z,7.60
2023-03-16T06:39:32.940Z,7.60
2023-03-16T06:42:01.288Z,7.60
2023-03-16T06:44:29.637Z,7.60
2023-03-16T06:47:05.710Z,7.60
2023-03-16T06:49:34.326Z,7.50
2023-03-16T06:52:06.904Z,7.60
2023-03-16T06:54:37.424Z,7.50
2023-03-16T06:57:06.058Z,7.50
2023-03-16T06:59:34.508Z,7.50
2023-03-16T07:02:02.937Z,7.60
2023-03-16T07:04:34.139Z,7.50
2023-03-16T07:07:02.636Z,7.60
2023-03-16T07:09:31.737Z,7.50
2023-03-16T07:12:00.057Z,7.50
2023-03-16T07:14:28.459Z,7.50
2023-03-16T07:16:58.569Z,7.60
2023-03-16T07:19:27.959Z,7.50
2023-03-16T07:22:03.434Z,7.60
2023-03-16T07:24:35.343Z,7.50
2023-03-16T07:27:03.827Z,7.50
2023-03-16T07:29:34.274Z,7.50
2023-03-16T07:32:05.159Z,7.50
2023-03-16T07:34:38.321Z,7.50
2023-03-16T07:37:08.970Z,7.50
2023-03-16T07:39:37.386Z,7.50
2023-03-16T07:42:11.211Z,7.50
2023-03-16T07:44:51.825Z,7.50
2023-03-16T07:47:21.033Z,7.50
2023-03-16T07:49:53.774Z,7.50
2023-03-16T07:52:24.079Z,7.50
2023-03-16T07:54:53.589Z,7.50
2023-03-16T07:57:21.916Z,7.50
2023-03-16T07:59:50.256Z,7.50
2023-03-16T08:02:21.711Z,7.50
2023-03-16T08:04:51.569Z,7.50
2023-03-16T08:07:20.203Z,7.50
2023-03-16T08:10:05.574Z,7.50
2023-03-16T08:12:42.825Z,7.50
2023-03-16T08:15:12.283Z,7.40
2023-03-16T08:17:42.689Z,7.50
2023-03-16T08:20:15.927Z,7.40
2023-03-16T08:22:46.445Z,7.40
2023-03-16T08:25:19.901Z,7.50
2023-03-16T08:28:02.268Z,7.40
2023-03-16T08:30:31.076Z,7.50
2023-03-16T08:33:23.509Z,7.40
2023-03-16T08:35:53.502Z,7.40
2023-03-16T08:38:21.788Z,7.50
2023-03-16T08:40:53.584Z,7.50
2023-03-16T08:43:24.167Z,7.50
2023-03-16T08:45:53.847Z,7.50
2023-03-16T08:48:25.325Z,7.50
2023-03-16T08:50:54.108Z,7.50
2023-03-16T08:53:22.646Z,7.50
2023-03-16T08:55:51.880Z,7.50
2023-03-16T08:58:21.554Z,7.50
2023-03-16T09:00:50.683Z,7.50
2023-03-16T09:03:20.001Z,7.50
2023-03-16T09:05:49.450Z,7.50
2023-03-16T09:08:18.242Z,7.50
2023-03-16T09:10:46.864Z,7.50
2023-03-16T09:13:16.355Z,7.50
2023-03-16T09:15:46.388Z,7.50
2023-03-16T09:18:15.080Z,7.50
2023-03-16T09:20:43.839Z,7.50
2023-03-16T09:23:12.157Z,7.50
2023-03-16T09:25:40.455Z,7.50
2023-03-16T09:28:08.778Z,7.50
2023-03-16T09:30:38.440Z,7.50
2023-03-16T09:33:08.693Z,7.50
2023-03-16T09:35:38.672Z,7.50
2023-03-16T09:38:07.375Z,7.50
2023-03-16T09:40:38.472Z,7.50
2023-03-16T09:43:25.824Z,7.50
2023-03-16T09:46:01.804Z,7.50
2023-03-16T09:48:33.812Z,7.50
2023-03-16T09:51:04.966Z,7.50
2023-03-16T09:53:36.347Z,7.50
2023-03-16T09:56:06.728Z,7.50
2023-03-16T09:58:36.529Z,7.50
2023-03-16T10:01:15.113Z,7.50
2023-03-16T10:04:04.801Z,7.50
2023-03-16T10:06:33.557Z,7.50
2023-03-16T10:09:14.623Z,7.50
2023-03-16T10:11:46.011Z,7.50
2023-03-16T10:14:22.232Z,7.50
2023-03-16T10:16:53.421Z,7.60
2023-03-16T10:19:31.420Z,7.50
2023-03-16T10:22:01.956Z,7.50
2023-03-16T10:24:43.132Z,7.50
2023-03-16T10:27:20.395Z,7.60
2023-03-16T10:29:48.984Z,7.60
2023-03-16T10:32:19.575Z,7.60
2023-03-16T10:34:56.010Z,7.60
2023-03-16T10:37:27.607Z,7.60
2023-03-16T10:39:56.548Z,7.60
2023-03-16T10:42:27.151Z,7.60
2023-03-16T10:45:01.783Z,7.60
2023-03-16T10:47:32.850Z,7.60
2023-03-16T10:50:14.341Z,7.60
2023-03-16T10:52:46.836Z,7.60
2023-03-16T10:55:20.588Z,7.60
2023-03-16T10:57:51.685Z,7.60
2023-03-16T11:00:23.597Z,7.60
2023-03-16T11:02:53.660Z,7.60
2023-03-16T11:05:31.050Z,7.60
2023-03-16T11:08:03.261Z,7.60
2023-03-16T11:10:38.083Z,7.60
2023-03-16T11:13:14.773Z,7.60
2023-03-16T11:15:48.892Z,7.60
2023-03-16T11:18:29.633Z,7.60
2023-03-16T11:21:02.112Z,7.60
2023-03-16T11:23:33.356Z,7.60
2023-03-16T11:26:05.780Z,7.60
2023-03-16T11:28:38.729Z,7.70
2023-03-16T11:31:21.111Z,7.70
2023-03-16T11:33:50.173Z,7.70
2023-03-16T11:36:30.102Z,7.70
2023-03-16T11:39:08.561Z,7.70
2023-03-16T11:41:48.717Z,7.70
2023-03-16T11:44:28.607Z,7.70
2023-03-16T11:47:07.383Z,7.70
2023-03-16T11:49:50.112Z,7.70
2023-03-16T11:52:27.926Z,7.70
2023-03-16T11:55:07.841Z,7.70
2023-03-16T11:57:50.067Z,7.70
2023-03-16T12:00:33.176Z,7.70
2023-03-16T12:03:39.794Z,7.70
2023-03-16T12:06:23.292Z,7.70
2023-03-16T12:09:15.563Z,7.70
2023-03-16T12:11:54.243Z,7.70
2023-03-16T12:14:28.315Z,7.70
2023-03-16T12:17:02.296Z,7.70
2023-03-16T12:19:40.955Z,7.70
2023-03-16T12:22:18.526Z,7.70
2023-03-16T12:24:48.708Z,7.70
2023-03-16T12:27:19.640Z,7.70
2023-03-16T12:29:59.408Z,7.70
2023-03-16T12:32:37.052Z,7.80
2023-03-16T12:35:18.061Z,7.80
2023-03-16T12:37:55.281Z,7.80
2023-03-16T12:40:32.816Z,7.80
2023-03-16T12:43:14.009Z,7.80
2023-03-16T12:45:49.326Z,7.80
2023-03-16T12:48:24.892Z,7.80
2023-03-16T12:50:55.878Z,7.80
2023-03-16T12:53:28.934Z,7.80
2023-03-16T12:55:58.624Z,7.80
2023-03-16T12:58:28.230Z,7.80
2023-03-16T13:00:59.459Z,7.80
2023-03-16T13:03:29.721Z,7.80
2023-03-16T13:06:01.007Z,7.80
2023-03-16T13:08:30.649Z,7.80
2023-03-16T13:11:06.101Z,7.80
2023-03-16T13:13:36.335Z,7.80
2023-03-16T13:16:10.998Z,7.80
2023-03-16T13:18:44.700Z,7.80
2023-03-16T13:21:19.706Z,7.80
2023-03-16T13:23:57.469Z,7.80
2023-03-16T13:26:42.111Z,7.80
2023-03-16T13:29:23.815Z,7.80
2023-03-16T13:31:53.750Z,7.80
2023-03-16T13:34:24.446Z,7.80
2023-03-16T13:36:57.425Z,7.80
2023-03-16T13:39:28.453Z,7.80
2023-03-16T13:42:00.667Z,7.90
2023-03-16T13:44:30.568Z,7.80
2023-03-16T13:46:58.929Z,7.80
2023-03-16T13:49:27.586Z,7.80
2023-03-16T13:51:55.807Z,7.80
2023-03-16T13:54:26.440Z,7.90
2023-03-16T13:56:56.651Z,7.90
2023-03-16T13:59:26.990Z,7.90
2023-03-16T14:02:01.644Z,7.90
2023-03-16T14:04:32.413Z,8.10
2023-03-16T14:07:02.393Z,8.20
2023-03-16T14:09:34.478Z,8.20
2023-03-16T14:12:03.710Z,8.30
2023-03-16T14:14:39.393Z,8.30
2023-03-16T14:17:12.512Z,8.30
2023-03-16T14:19:44.499Z,8.30
2023-03-16T14:22:18.291Z,8.40
2023-03-16T14:24:53.793Z,8.40
2023-03-16T14:27:43.709Z,8.50
2023-03-16T14:30:20.250Z,8.50
2023-03-16T14:32:59.750Z,8.50
2023-03-16T14:35:30.882Z,8.50
2023-03-16T14:38:19.396Z,8.50
2023-03-16T14:40:54.861Z,8.50
2023-03-16T14:43:30.698Z,8.50
2023-03-16T14:46:00.894Z,8.60
2023-03-16T14:48:30.314Z,8.60
2023-03-16T14:51:00.986Z,8.60
2023-03-16T14:53:29.369Z,8.60
2023-03-16T14:55:58.727Z,8.60
2023-03-16T14:58:27.213Z,8.60
2023-03-16T15:00:56.237Z,8.60
2023-03-16T15:03:33.663Z,8.60
2023-03-16T15:06:02.312Z,8.60
2023-03-16T15:08:33.776Z,8.60
2023-03-16T15:11:05.846Z,8.60
2023-03-16T15:13:53.072Z,8.60
2023-03-16T15:16:23.070Z,8.60
2023-03-16T15:18:52.990Z,8.60
2023-03-16T15:21:24.235Z,8.60
2023-03-16T15:23:52.593Z,8.60
2023-03-16T15:26:26.299Z,8.60
2023-03-16T15:28:54.876Z,8.60
2023-03-16T15:31:23.334Z,8.60
2023-03-16T15:33:53.062Z,8.60
2023-03-16T15:36:24.302Z,8.60
2023-03-16T15:38:55.240Z,8.60
2023-03-16T15:41:27.012Z,8.60
2023-03-16T15:44:00.745Z,8.70
2023-03-16T15:46:29.351Z,8.60
2023-03-16T15:48:59.098Z,8.60
2023-03-16T15:51:29.216Z,8.60
2023-03-16T15:54:00.126Z,8.70
2023-03-16T15:56:30.895Z,8.70
2023-03-16T15:59:01.949Z,8.80
2023-03-16T16:01:34.919Z,8.80
2023-03-16T16:04:05.451Z,8.80
2023-03-16T16:06:33.799Z,8.80
2023-03-16T16:09:02.115Z,8.80
2023-03-16T16:11:30.529Z,8.80
2023-03-16T16:14:00.395Z,8.80
2023-03-16T16:16:30.434Z,8.70
2023-03-16T16:18:59.178Z,8.70
2023-03-16T16:21:31.514Z,8.70
2023-03-16T16:24:02.180Z,8.70
2023-03-16T16:26:54.669Z,8.70
2023-03-16T16:29:25.642Z,8.70
2023-03-16T16:31:54.393Z,8.70
2023-03-16T16:34:25.292Z,8.70
2023-03-16T16:36:56.072Z,8.70
2023-03-16T16:39:25.445Z,8.70
2023-03-16T16:41:56.326Z,8.70
2023-03-16T16:44:28.274Z,8.70
2023-03-16T16:46:57.502Z,8.70
2023-03-16T16:49:28.232Z,8.70
2023-03-16T16:51:59.233Z,8.70
2023-03-16T16:54:30.195Z,8.70
2023-03-16T16:57:00.203Z,8.70
2023-03-16T16:59:32.407Z,8.70
2023-03-16T17:02:03.307Z,8.70
2023-03-16T17:04:31.844Z,8.70
2023-03-16T17:07:02.744Z,8.70
2023-03-16T17:09:31.758Z,8.70
2023-03-16T17:12:01.938Z,8.70
2023-03-16T17:14:31.300Z,8.70
2023-03-16T17:17:05.184Z,8.70
2023-03-16T17:19:33.682Z,8.70
2023-03-16T17:22:03.496Z,8.70
2023-03-16T17:24:32.002Z,8.70
2023-03-16T17:27:01.844Z,8.70
2023-03-16T17:29:33.246Z,8.70
2023-03-16T17:32:03.576Z,8.70
2023-03-16T17:34:34.426Z,8.70
2023-03-16T17:37:04.287Z,8.70
2023-03-16T17:39:34.851Z,8.70
2023-03-16T17:42:06.153Z,8.70
2023-03-16T17:44:37.113Z,8.70
2023-03-16T17:47:13.107Z,8.70
2023-03-16T17:49:41.541Z,8.70
2023-03-16T17:52:18.242Z,8.70
2023-03-16T17:54:47.402Z,8.70
2023-03-16T17:57:18.934Z,8.70
2023-03-16T17:59:47.817Z,8.70
2023-03-16T18:02:41.028Z,8.70
2023-03-16T18:05:18.270Z,8.70
2023-03-16T18:07:48.224Z,8.70
2023-03-16T18:10:17.954Z,8.70
2023-03-16T18:12:47.072Z,8.70
2023-03-16T18:15:18.291Z,8.70
2023-03-16T18:17:47.211Z,8.70
2023-03-16T18:20:22.872Z,8.70
2023-03-16T18:22:52.572Z,8.70
2023-03-16T18:25:30.256Z,8.70
2023-03-16T18:27:59.193Z,8.70
2023-03-16T18:30:28.232Z,8.70
2023-03-16T18:32:58.511Z,8.70
2023-03-16T18:35:27.942Z,8.70
2023-03-16T18:37:57.919Z,8.70
2023-03-16T18:40:27.536Z,8.70
2023-03-16T18:42:56.456Z,8.70
2023-03-16T18:45:27.894Z,8.70
2023-03-16T18:47:58.029Z,8.70
2023-03-16T18:50:28.698Z,8.70
2023-03-16T18:52:58.789Z,8.70
2023-03-16T18:55:28.881Z,8.70
2023-03-16T18:57:58.690Z,8.70
2023-03-16T19:00:29.759Z,8.70
2023-03-16T19:03:03.164Z,8.70
2023-03-16T19:05:35.888Z,8.70
2023-03-16T19:08:06.799Z,8.80
2023-03-16T19:10:37.463Z,8.70
2023-03-16T19:13:14.519Z,8.70
2023-03-16T19:15:43.218Z,8.80
2023-03-16T19:18:11.548Z,8.80
2023-03-16T19:20:41.143Z,8.70
2023-03-16T19:23:18.838Z,8.80
2023-03-16T19:25:48.040Z,8.80
2023-03-16T19:28:28.009Z,8.80
2023-03-16T19:30:57.032Z,8.80
2023-03-16T19:33:27.223Z,8.80
2023-03-16T19:35:56.827Z,8.80
2023-03-16T19:38:27.401Z,8.80
2023-03-16T19:40:58.975Z,8.80
2023-03-16T19:43:28.488Z,8.80
2023-03-16T19:45:57.310Z,8.80
2023-03-16T19:48:32.835Z,8.80
2023-03-16T19:51:01.540Z,8.80
2023-03-16T19:53:31.277Z,8.80
2023-03-16T19:55:59.711Z,8.80
2023-03-16T19:58:33.333Z,8.80
2023-03-16T20:01:02.231Z,8.80
2023-03-16T20:03:32.862Z,8.80
2023-03-16T20:06:01.410Z,8.80
2023-03-16T20:08:31.357Z,8.80
2023-03-16T20:11:03.505Z,8.80
2023-03-16T20:13:32.314Z,8.80
2023-03-16T20:16:00.939Z,8.80
2023-03-16T20:18:30.043Z,8.80
2023-03-16T20:20:58.608Z,8.80
2023-03-16T20:23:29.192Z,8.80
2023-03-16T20:26:02.672Z,8.80
2023-03-16T20:28:36.003Z,8.80
2023-03-16T20:31:07.974Z,8.80
2023-03-16T20:33:36.482Z,8.80
2023-03-16T20:36:05.615Z,8.80
2023-03-16T20:38:33.930Z,8.80
2023-03-16T20:41:04.288Z,8.80
2023-03-16T20:43:33.596Z,8.80
2023-03-16T20:46:03.846Z,8.80
2023-03-16T20:48:32.727Z,8.80
2023-03-16T20:51:01.817Z,8.80
2023-03-16T20:53:30.150Z,8.80
2023-03-16T20:55:58.607Z,8.80
2023-03-16T20:58:29.217Z,8.80
2023-03-16T21:00:58.339Z,8.80
2023-03-16T21:03:28.770Z,8.80
2023-03-16T21:06:00.016Z,8.80
2023-03-16T21:08:28.912Z,8.80
2023-03-16T21:10:59.309Z,8.80
2023-03-16T21:13:31.684Z,8.80
2023-03-16T21:16:02.626Z,8.80
2023-03-16T21:18:34.054Z,8.80
2023-03-16T21:21:03.218Z,8.80
2023-03-16T21:23:31.668Z,8.80
2023-03-16T21:26:03.686Z,8.80
2023-03-16T21:28:35.313Z,8.80
2023-03-16T21:31:03.905Z,8.80
2023-03-16T21:33:35.010Z,8.80
2023-03-16T21:36:06.205Z,8.80
2023-03-16T21:38:34.966Z,8.80
2023-03-16T21:41:03.741Z,8.80
2023-03-16T21:43:33.389Z,8.80
2023-03-16T21:46:01.928Z,8.80
2023-03-16T21:48:37.004Z,8.80
2023-03-16T21:51:12.434Z,8.80
2023-03-16T21:53:40.985Z,8.80
2023-03-16T21:56:15.455Z,8.80
2023-03-16T21:58:45.644Z,8.80
2023-03-16T22:01:24.911Z,8.80
2023-03-16T22:03:57.314Z,8.80
2023-03-16T22:06:27.957Z,8.80
2023-03-16T22:08:57.465Z,8.80
2023-03-16T22:11:28.359Z,8.80
2023-03-16T22:13:59.424Z,8.80
2023-03-16T22:16:30.798Z,8.80
2023-03-16T22:18:59.438Z,8.80
2023-03-16T22:21:34.284Z,8.80
2023-03-16T22:24:05.282Z,8.80
2023-03-16T22:26:33.729Z,8.80
2023-03-16T22:29:07.736Z,8.80
2023-03-16T22:31:39.093Z,8.80
2023-03-16T22:34:08.311Z,8.80
2023-03-16T22:36:36.619Z,8.80
2023-03-16T22:39:08.742Z,8.80
2023-03-16T22:41:37.473Z,8.80
2023-03-16T22:44:08.116Z,8.80
2023-03-16T22:46:36.450Z,8.80
2023-03-16T22:49:18.894Z,8.80
2023-03-16T22:51:47.477Z,8.80
2023-03-16T22:54:19.575Z,8.80
2023-03-16T22:56:48.726Z,8.80
2023-03-16T22:59:21.894Z,8.80
2023-03-16T23:01:51.693Z,8.80
2023-03-16T23:04:22.265Z,8.80
2023-03-16T23:06:52.573Z,8.80
2023-03-16T23:09:22.631Z,8.80
2023-03-16T23:11:53.940Z,8.80
2023-03-16T23:14:26.333Z,8.80
2023-03-16T23:16:54.701Z,8.80
2023-03-16T23:19:29.697Z,8.80
2023-03-16T23:22:00.799Z,8.80
2023-03-16T23:24:29.406Z,8.80
2023-03-16T23:26:58.133Z,8.80
2023-03-16T23:29:28.954Z,8.80
2023-03-16T23:31:57.956Z,8.80
2023-03-16T23:34:27.199Z,8.80
2023-03-16T23:36:55.643Z,8.80
2023-03-16T23:39:23.990Z,8.80
2023-03-16T23:41:53.224Z,8.80
2023-03-16T23:44:24.587Z,8.80
2023-03-16T23:46:54.776Z,8.80
2023-03-16T23:49:25.437Z,8.80
2023-03-16T23:51:54.482Z,8.80
2023-03-16T23:54:24.869Z,8.80
2023-03-16T23:56:53.232Z,8.80
2023-03-16T23:59:23.354Z,8.80
